sensor_id;sensor_type;location;lat;lon;timestamp;temperature;humidity
20996;DHT22;10656;52.200;21.052;2024-03-25T00:02:33;3.50;99.90
20996;DHT22;10656;52.200;21.052;2024-03-25T00:18:11;3.70;99.90
20996;DHT22;10656;52.200;21.052;2024-03-25T00:58:36;3.20;99.90
20996;DHT22;10656;52.200;21.052;2024-03-25T01:19:07;3.30;99.90
20996;DHT22;10656;52.200;21.052;2024-03-25T02:09:41;3.30;99.90
20996;DHT22;10656;52.200;21.052;2024-03-25T02:34:55;2.60;99.90
20996;DHT22;10656;52.200;21.052;2024-03-25T03:25:56;3.00;99.90
20996;DHT22;10656;52.200;21.052;2024-03-25T03:30:21;3.00;99.90
20996;DHT22;10656;52.200;21.052;2024-03-25T04:05:59;3.10;99.90
20996;DHT22;10656;52.200;21.052;2024-03-25T04:31:44;2.90;99.90
20996;DHT22;10656;52.200;21.052;2024-03-25T05:06:57;3.20;99.90
20996;DHT22;10656;52.200;21.052;2024-03-25T05:37:16;3.60;99.90
20996;DHT22;10656;52.200;21.052;2024-03-25T06:02:45;4.80;99.90
20996;DHT22;10656;52.200;21.052;2024-03-25T06:23:25;5.50;93.30
20996;DHT22;10656;52.200;21.052;2024-03-25T06:26:19;5.90;92.70
20996;DHT22;10656;52.200;21.052;2024-03-25T06:43:47;6.40;89.20
20996;DHT22;10656;52.200;21.052;2024-03-25T07:24:05;6.60;87.70
20996;DHT22;10656;52.200;21.052;2024-03-25T07:49:46;7.10;86.70
20996;DHT22;10656;52.200;21.052;2024-03-25T08:19:36;8.00;86.60
20996;DHT22;10656;52.200;21.052;2024-03-25T08:45:22;8.50;84.10
20996;DHT22;10656;52.200;21.052;2024-03-25T09:10:33;9.10;83.20
20996;DHT22;10656;52.200;21.052;2024-03-25T09:51:26;10.30;79.50
20996;DHT22;10656;52.200;21.052;2024-03-25T10:11:49;10.40;77.20
20996;DHT22;10656;52.200;21.052;2024-03-25T10:37:09;10.80;77.60
20996;DHT22;10656;52.200;21.052;2024-03-25T11:07:30;11.70;76.40
20996;DHT22;10656;52.200;21.052;2024-03-25T11:32:15;11.00;73.80
20996;DHT22;10656;52.200;21.052;2024-03-25T11:47:46;11.00;75.70
20996;DHT22;10656;52.200;21.052;2024-03-25T12:08:15;11.50;73.50
20996;DHT22;10656;52.200;21.052;2024-03-25T12:23:42;11.30;74.10
20996;DHT22;10656;52.200;21.052;2024-03-25T12:48:56;11.00;74.60
20996;DHT22;10656;52.200;21.052;2024-03-25T13:18:57;10.60;74.00
20996;DHT22;10656;52.200;21.052;2024-03-25T13:44:43;11.10;75.60
20996;DHT22;10656;52.200;21.052;2024-03-25T14:04:56;10.50;77.00
20996;DHT22;10656;52.200;21.052;2024-03-25T14:30:33;11.00;77.80
20996;DHT22;10656;52.200;21.052;2024-03-25T14:50:18;11.00;76.20
20996;DHT22;10656;52.200;21.052;2024-03-25T15:10:47;10.30;77.20
20996;DHT22;10656;52.200;21.052;2024-03-25T15:31:21;10.40;77.00
20996;DHT22;10656;52.200;21.052;2024-03-25T15:51:41;10.60;76.00
20996;DHT22;10656;52.200;21.052;2024-03-25T16:16:41;9.50;77.60
20996;DHT22;10656;52.200;21.052;2024-03-25T16:57:27;8.30;81.80
20996;DHT22;10656;52.200;21.052;2024-03-25T17:17:38;7.50;83.10
20996;DHT22;10656;52.200;21.052;2024-03-25T17:58:25;6.90;87.00
20996;DHT22;10656;52.200;21.052;2024-03-25T18:23:14;7.10;86.90
20996;DHT22;10656;52.200;21.052;2024-03-25T18:44:03;7.10;86.90
20996;DHT22;10656;52.200;21.052;2024-03-25T19:13:56;6.20;90.50
20996;DHT22;10656;52.200;21.052;2024-03-25T19:34:25;5.80;91.60
20996;DHT22;10656;52.200;21.052;2024-03-25T19:55:08;5.50;92.60
20996;DHT22;10656;52.200;21.052;2024-03-25T20:19:46;5.40;93.70
20996;DHT22;10656;52.200;21.052;2024-03-25T20:40:24;4.40;94.80
20996;DHT22;10656;52.200;21.052;2024-03-25T21:00:45;3.90;99.90
20996;DHT22;10656;52.200;21.052;2024-03-25T21:25:57;3.80;99.90
20996;DHT22;10656;52.200;21.052;2024-03-25T21:41:23;3.40;99.90
20996;DHT22;10656;52.200;21.052;2024-03-25T22:07:03;3.40;99.90
20996;DHT22;10656;52.200;21.052;2024-03-25T22:27:01;3.80;99.90
20996;DHT22;10656;52.200;21.052;2024-03-25T22:52:42;3.50;99.90
20996;DHT22;10656;52.200;21.052;2024-03-25T23:22:30;2.80;99.90
20996;DHT22;10656;52.200;21.052;2024-03-25T23:47:46;2.30;99.90
